sensor_id;sensor_type;location;lat;lon;timestamp;P1;durP1;ratioP1;P2;durP2;ratioP2
10399;SDS011;10031;51.180;17.168;2022-10-26T00:00:28;12.40;;;8.10;;
10399;SDS011;10031;51.180;17.168;2022-10-26T00:02:54;12.07;;;7.47;;
10399;SDS011;10031;51.180;17.168;2022-10-26T00:05:20;10.00;;;6.83;;
10399;SDS011;10031;51.180;17.168;2022-10-26T00:07:47;8.10;;;6.70;;
10399;SDS011;10031;51.180;17.168;2022-10-26T00:10:13;11.93;;;8.10;;
10399;SDS011;10031;51.180;17.168;2022-10-26T00:12:39;41.97;;;10.80;;
10399;SDS011;10031;51.180;17.168;2022-10-26T00:15:05;31.93;;;10.37;;
10399;SDS011;10031;51.180;17.168;2022-10-26T00:17:33;22.97;;;10.47;;
10399;SDS011;10031;51.180;17.168;2022-10-26T00:19:59;92.60;;;13.00;;
10399;SDS011;10031;51.180;17.168;2022-10-26T00:22:26;27.23;;;12.07;;
10399;SDS011;10031;51.180;17.168;2022-10-26T00:24:53;22.50;;;8.90;;
10399;SDS011;10031;51.180;17.168;2022-10-26T00:27:19;39.63;;;8.57;;
10399;SDS011;10031;51.180;17.168;2022-10-26T00:29:45;14.37;;;8.53;;
10399;SDS011;10031;51.180;17.168;2022-10-26T00:32:10;12.93;;;9.37;;
10399;SDS011;10031;51.180;17.168;2022-10-26T00:34:36;12.03;;;8.73;;
10399;SDS011;10031;51.180;17.168;2022-10-26T00:37:02;13.43;;;8.60;;
10399;SDS011;10031;51.180;17.168;2022-10-26T00:39:28;13.33;;;8.70;;
10399;SDS011;10031;51.180;17.168;2022-10-26T00:41:57;20.87;;;8.77;;
10399;SDS011;10031;51.180;17.168;2022-10-26T00:47:15;14.27;;;8.60;;
10399;SDS011;10031;51.180;17.168;2022-10-26T00:50:16;15.37;;;9.27;;
10399;SDS011;10031;51.180;17.168;2022-10-26T00:52:44;17.93;;;10.33;;
10399;SDS011;10031;51.180;17.168;2022-10-26T00:55:14;16.57;;;10.70;;
10399;SDS011;10031;51.180;17.168;2022-10-26T00:57:45;15.07;;;10.13;;
10399;SDS011;10031;51.180;17.168;2022-10-26T01:00:12;15.40;;;9.50;;
10399;SDS011;10031;51.180;17.168;2022-10-26T01:02:38;11.97;;;8.03;;
10399;SDS011;10031;51.180;17.168;2022-10-26T01:05:04;15.57;;;8.83;;
10399;SDS011;10031;51.180;17.168;2022-10-26T01:07:30;12.60;;;8.27;;
10399;SDS011;10031;51.180;17.168;2022-10-26T01:09:57;12.53;;;8.73;;
10399;SDS011;10031;51.180;17.168;2022-10-26T01:12:23;15.80;;;9.50;;
10399;SDS011;10031;51.180;17.168;2022-10-26T01:14:49;13.47;;;9.27;;
10399;SDS011;10031;51.180;17.168;2022-10-26T01:19:50;38.30;;;10.50;;
10399;SDS011;10031;51.180;17.168;2022-10-26T01:27:34;121.33;;;13.60;;
10399;SDS011;10031;51.180;17.168;2022-10-26T01:30:21;59.87;;;11.43;;
10399;SDS011;10031;51.180;17.168;2022-10-26T01:41:16;14.73;;;10.87;;
10399;SDS011;10031;51.180;17.168;2022-10-26T01:44:00;17.90;;;10.40;;
10399;SDS011;10031;51.180;17.168;2022-10-26T01:46:31;15.03;;;10.43;;
10399;SDS011;10031;51.180;17.168;2022-10-26T01:49:04;18.77;;;10.33;;
10399;SDS011;10031;51.180;17.168;2022-10-26T01:51:34;13.77;;;9.33;;
10399;SDS011;10031;51.180;17.168;2022-10-26T01:54:02;12.77;;;8.17;;
10399;SDS011;10031;51.180;17.168;2022-10-26T01:56:28;10.87;;;8.03;;
10399;SDS011;10031;51.180;17.168;2022-10-26T01:59:12;12.17;;;8.37;;
10399;SDS011;10031;51.180;17.168;2022-10-26T02:16:01;14.00;;;9.30;;
10399;SDS011;10031;51.180;17.168;2022-10-26T02:21:18;12.67;;;7.60;;
10399;SDS011;10031;51.180;17.168;2022-10-26T02:23:49;10.10;;;7.10;;
10399;SDS011;10031;51.180;17.168;2022-10-26T02:26:19;21.20;;;6.80;;
10399;SDS011;10031;51.180;17.168;2022-10-26T02:28:48;198.77;;;13.00;;
10399;SDS011;10031;51.180;17.168;2022-10-26T02:31:17;103.47;;;11.90;;
10399;SDS011;10031;51.180;17.168;2022-10-26T02:33:45;98.03;;;13.03;;
10399;SDS011;10031;51.180;17.168;2022-10-26T02:36:16;96.77;;;14.40;;
10399;SDS011;10031;51.180;17.168;2022-10-26T02:38:54;19.97;;;11.97;;
10399;SDS011;10031;51.180;17.168;2022-10-26T02:41:23;31.70;;;13.70;;
10399;SDS011;10031;51.180;17.168;2022-10-26T02:43:53;42.03;;;15.00;;
10399;SDS011;10031;51.180;17.168;2022-10-26T02:46:24;36.37;;;16.73;;
10399;SDS011;10031;51.180;17.168;2022-10-26T02:48:51;46.83;;;16.27;;
10399;SDS011;10031;51.180;17.168;2022-10-26T02:51:29;42.67;;;17.00;;
10399;SDS011;10031;51.180;17.168;2022-10-26T02:54:09;53.73;;;17.87;;
10399;SDS011;10031;51.180;17.168;2022-10-26T02:56:45;55.10;;;19.20;;
10399;SDS011;10031;51.180;17.168;2022-10-26T02:59:18;58.63;;;19.27;;
10399;SDS011;10031;51.180;17.168;2022-10-26T03:01:46;39.00;;;17.60;;
10399;SDS011;10031;51.180;17.168;2022-10-26T03:04:12;73.17;;;19.77;;
10399;SDS011;10031;51.180;17.168;2022-10-26T03:06:38;87.27;;;21.37;;
10399;SDS011;10031;51.180;17.168;2022-10-26T03:09:04;53.30;;;19.23;;
10399;SDS011;10031;51.180;17.168;2022-10-26T03:11:30;56.77;;;19.97;;
10399;SDS011;10031;51.180;17.168;2022-10-26T03:13:56;49.60;;;18.87;;
10399;SDS011;10031;51.180;17.168;2022-10-26T03:16:21;46.80;;;18.00;;
10399;SDS011;10031;51.180;17.168;2022-10-26T03:18:47;41.90;;;20.53;;
10399;SDS011;10031;51.180;17.168;2022-10-26T03:21:13;35.93;;;17.57;;
10399;SDS011;10031;51.180;17.168;2022-10-26T03:23:39;51.13;;;17.60;;
10399;SDS011;10031;51.180;17.168;2022-10-26T03:26:06;41.80;;;18.33;;
10399;SDS011;10031;51.180;17.168;2022-10-26T03:28:32;47.60;;;21.10;;
10399;SDS011;10031;51.180;17.168;2022-10-26T03:30:58;34.60;;;18.93;;
10399;SDS011;10031;51.180;17.168;2022-10-26T03:33:24;36.07;;;18.47;;
10399;SDS011;10031;51.180;17.168;2022-10-26T03:35:54;88.07;;;24.17;;
10399;SDS011;10031;51.180;17.168;2022-10-26T03:38:20;140.13;;;27.13;;
10399;SDS011;10031;51.180;17.168;2022-10-26T03:40:46;160.53;;;27.27;;
10399;SDS011;10031;51.180;17.168;2022-10-26T03:43:12;106.07;;;24.43;;
10399;SDS011;10031;51.180;17.168;2022-10-26T03:45:38;57.93;;;20.80;;
10399;SDS011;10031;51.180;17.168;2022-10-26T03:48:04;83.03;;;20.07;;
10399;SDS011;10031;51.180;17.168;2022-10-26T03:50:30;80.07;;;17.83;;
10399;SDS011;10031;51.180;17.168;2022-10-26T03:52:56;51.77;;;16.83;;
10399;SDS011;10031;51.180;17.168;2022-10-26T03:55:22;44.90;;;17.57;;
10399;SDS011;10031;51.180;17.168;2022-10-26T03:57:48;60.80;;;17.70;;
10399;SDS011;10031;51.180;17.168;2022-10-26T04:00:18;50.57;;;17.70;;
10399;SDS011;10031;51.180;17.168;2022-10-26T04:02:44;46.97;;;16.73;;
10399;SDS011;10031;51.180;17.168;2022-10-26T04:05:17;29.40;;;15.43;;
10399;SDS011;10031;51.180;17.168;2022-10-26T04:07:43;43.07;;;18.57;;
10399;SDS011;10031;51.180;17.168;2022-10-26T04:10:09;33.30;;;19.40;;
10399;SDS011;10031;51.180;17.168;2022-10-26T04:12:36;25.80;;;16.70;;
10399;SDS011;10031;51.180;17.168;2022-10-26T04:15:02;31.50;;;18.27;;
10399;SDS011;10031;51.180;17.168;2022-10-26T04:17:30;28.60;;;16.60;;
10399;SDS011;10031;51.180;17.168;2022-10-26T04:19:56;28.87;;;15.70;;
10399;SDS011;10031;51.180;17.168;2022-10-26T04:22:22;85.03;;;18.40;;
10399;SDS011;10031;51.180;17.168;2022-10-26T04:24:48;64.80;;;16.60;;
10399;SDS011;10031;51.180;17.168;2022-10-26T04:27:14;68.77;;;18.00;;
10399;SDS011;10031;51.180;17.168;2022-10-26T04:29:40;33.13;;;17.67;;
10399;SDS011;10031;51.180;17.168;2022-10-26T04:32:06;52.73;;;18.80;;
10399;SDS011;10031;51.180;17.168;2022-10-26T04:34:32;37.63;;;18.00;;
10399;SDS011;10031;51.180;17.168;2022-10-26T04:36:58;31.33;;;17.50;;
10399;SDS011;10031;51.180;17.168;2022-10-26T04:39:24;34.03;;;17.60;;
10399;SDS011;10031;51.180;17.168;2022-10-26T04:41:50;52.73;;;22.10;;
10399;SDS011;10031;51.180;17.168;2022-10-26T04:44:16;45.70;;;18.97;;
10399;SDS011;10031;51.180;17.168;2022-10-26T04:46:42;45.43;;;20.30;;
10399;SDS011;10031;51.180;17.168;2022-10-26T04:49:11;51.93;;;20.90;;
10399;SDS011;10031;51.180;17.168;2022-10-26T04:51:37;32.23;;;17.23;;
10399;SDS011;10031;51.180;17.168;2022-10-26T04:54:03;27.60;;;16.87;;
10399;SDS011;10031;51.180;17.168;2022-10-26T04:56:29;29.00;;;18.13;;
10399;SDS011;10031;51.180;17.168;2022-10-26T04:58:55;28.87;;;17.43;;
10399;SDS011;10031;51.180;17.168;2022-10-26T05:01:21;32.00;;;17.97;;
10399;SDS011;10031;51.180;17.168;2022-10-26T05:03:51;41.50;;;20.70;;
10399;SDS011;10031;51.180;17.168;2022-10-26T05:06:17;37.70;;;21.10;;
10399;SDS011;10031;51.180;17.168;2022-10-26T05:08:44;39.07;;;21.70;;
10399;SDS011;10031;51.180;17.168;2022-10-26T05:11:10;34.47;;;18.80;;
10399;SDS011;10031;51.180;17.168;2022-10-26T05:13:35;42.73;;;23.27;;
10399;SDS011;10031;51.180;17.168;2022-10-26T05:16:01;31.13;;;19.60;;
10399;SDS011;10031;51.180;17.168;2022-10-26T05:18:27;37.47;;;21.07;;
10399;SDS011;10031;51.180;17.168;2022-10-26T05:20:54;48.97;;;22.70;;
10399;SDS011;10031;51.180;17.168;2022-10-26T05:23:20;39.40;;;22.00;;
10399;SDS011;10031;51.180;17.168;2022-10-26T05:25:46;43.60;;;22.43;;
10399;SDS011;10031;51.180;17.168;2022-10-26T05:28:13;49.43;;;22.50;;
10399;SDS011;10031;51.180;17.168;2022-10-26T05:30:40;56.63;;;22.77;;
10399;SDS011;10031;51.180;17.168;2022-10-26T05:33:07;56.43;;;22.80;;
10399;SDS011;10031;51.180;17.168;2022-10-26T05:35:35;74.97;;;25.17;;
10399;SDS011;10031;51.180;17.168;2022-10-26T05:38:08;84.07;;;26.47;;
10399;SDS011;10031;51.180;17.168;2022-10-26T05:40:35;70.60;;;25.27;;
10399;SDS011;10031;51.180;17.168;2022-10-26T05:43:01;67.07;;;25.20;;
10399;SDS011;10031;51.180;17.168;2022-10-26T05:45:27;65.30;;;23.63;;
10399;SDS011;10031;51.180;17.168;2022-10-26T05:47:53;53.40;;;23.47;;
10399;SDS011;10031;51.180;17.168;2022-10-26T05:50:19;61.37;;;25.03;;
10399;SDS011;10031;51.180;17.168;2022-10-26T05:52:46;72.93;;;27.00;;
10399;SDS011;10031;51.180;17.168;2022-10-26T05:55:13;67.00;;;25.07;;
10399;SDS011;10031;51.180;17.168;2022-10-26T05:57:41;61.73;;;24.97;;
10399;SDS011;10031;51.180;17.168;2022-10-26T06:00:08;67.57;;;24.10;;
10399;SDS011;10031;51.180;17.168;2022-10-26T06:02:43;74.13;;;28.03;;
10399;SDS011;10031;51.180;17.168;2022-10-26T06:05:17;65.53;;;24.67;;
10399;SDS011;10031;51.180;17.168;2022-10-26T06:07:47;60.83;;;26.73;;
10399;SDS011;10031;51.180;17.168;2022-10-26T06:10:13;54.97;;;27.33;;
10399;SDS011;10031;51.180;17.168;2022-10-26T06:12:39;66.83;;;27.90;;
10399;SDS011;10031;51.180;17.168;2022-10-26T06:15:05;59.73;;;25.23;;
10399;SDS011;10031;51.180;17.168;2022-10-26T06:30:56;48.40;;;28.07;;
10399;SDS011;10031;51.180;17.168;2022-10-26T06:33:22;41.53;;;26.00;;
10399;SDS011;10031;51.180;17.168;2022-10-26T06:38:19;41.47;;;22.83;;
10399;SDS011;10031;51.180;17.168;2022-10-26T06:40:47;35.10;;;21.53;;
10399;SDS011;10031;51.180;17.168;2022-10-26T06:43:25;30.07;;;19.53;;
10399;SDS011;10031;51.180;17.168;2022-10-26T06:45:55;35.20;;;20.73;;
10399;SDS011;10031;51.180;17.168;2022-10-26T06:48:53;41.03;;;22.07;;
10399;SDS011;10031;51.180;17.168;2022-10-26T06:51:20;39.70;;;22.10;;
10399;SDS011;10031;51.180;17.168;2022-10-26T06:54:07;38.13;;;22.87;;
10399;SDS011;10031;51.180;17.168;2022-10-26T06:56:39;37.93;;;22.67;;
10399;SDS011;10031;51.180;17.168;2022-10-26T06:59:13;46.13;;;25.23;;
10399;SDS011;10031;51.180;17.168;2022-10-26T07:01:46;46.43;;;26.73;;
10399;SDS011;10031;51.180;17.168;2022-10-26T07:04:12;46.23;;;27.43;;
10399;SDS011;10031;51.180;17.168;2022-10-26T07:06:38;47.17;;;27.13;;
10399;SDS011;10031;51.180;17.168;2022-10-26T07:09:04;43.57;;;27.50;;
10399;SDS011;10031;51.180;17.168;2022-10-26T07:11:30;45.43;;;27.07;;
10399;SDS011;10031;51.180;17.168;2022-10-26T07:13:56;45.03;;;28.30;;
10399;SDS011;10031;51.180;17.168;2022-10-26T07:16:24;46.40;;;27.20;;
10399;SDS011;10031;51.180;17.168;2022-10-26T07:18:50;39.17;;;24.63;;
10399;SDS011;10031;51.180;17.168;2022-10-26T07:21:16;32.70;;;23.40;;
10399;SDS011;10031;51.180;17.168;2022-10-26T07:23:41;43.37;;;26.13;;
10399;SDS011;10031;51.180;17.168;2022-10-26T07:26:07;47.27;;;28.87;;
10399;SDS011;10031;51.180;17.168;2022-10-26T07:28:33;46.57;;;28.90;;
10399;SDS011;10031;51.180;17.168;2022-10-26T07:31:00;46.83;;;28.63;;
10399;SDS011;10031;51.180;17.168;2022-10-26T07:33:29;47.30;;;29.40;;
10399;SDS011;10031;51.180;17.168;2022-10-26T07:35:55;40.08;;;24.35;;
10399;SDS011;10031;51.180;17.168;2022-10-26T07:38:23;28.48;;;21.33;;
10399;SDS011;10031;51.180;17.168;2022-10-26T07:40:49;28.25;;;19.38;;
10399;SDS011;10031;51.180;17.168;2022-10-26T07:43:14;25.35;;;17.05;;
10399;SDS011;10031;51.180;17.168;2022-10-26T07:45:40;26.67;;;16.77;;
10399;SDS011;10031;51.180;17.168;2022-10-26T07:48:06;26.97;;;16.47;;
10399;SDS011;10031;51.180;17.168;2022-10-26T07:50:32;25.93;;;16.23;;
10399;SDS011;10031;51.180;17.168;2022-10-26T07:52:58;29.23;;;16.70;;
10399;SDS011;10031;51.180;17.168;2022-10-26T07:55:24;24.10;;;15.77;;
10399;SDS011;10031;51.180;17.168;2022-10-26T07:57:50;23.60;;;15.20;;
10399;SDS011;10031;51.180;17.168;2022-10-26T08:00:17;24.50;;;15.83;;
10399;SDS011;10031;51.180;17.168;2022-10-26T08:02:43;23.23;;;15.27;;
10399;SDS011;10031;51.180;17.168;2022-10-26T08:05:09;21.40;;;14.83;;
10399;SDS011;10031;51.180;17.168;2022-10-26T08:07:39;24.93;;;15.00;;
10399;SDS011;10031;51.180;17.168;2022-10-26T08:10:09;20.50;;;14.10;;
10399;SDS011;10031;51.180;17.168;2022-10-26T08:12:35;23.63;;;14.77;;
10399;SDS011;10031;51.180;17.168;2022-10-26T08:15:02;22.27;;;15.40;;
10399;SDS011;10031;51.180;17.168;2022-10-26T08:17:29;20.63;;;13.90;;
10399;SDS011;10031;51.180;17.168;2022-10-26T08:19:55;23.00;;;15.03;;
10399;SDS011;10031;51.180;17.168;2022-10-26T08:22:21;19.80;;;14.30;;
10399;SDS011;10031;51.180;17.168;2022-10-26T08:24:48;19.97;;;13.90;;
10399;SDS011;10031;51.180;17.168;2022-10-26T08:27:14;20.93;;;14.43;;
10399;SDS011;10031;51.180;17.168;2022-10-26T08:29:40;17.60;;;13.90;;
10399;SDS011;10031;51.180;17.168;2022-10-26T08:32:07;21.90;;;14.80;;
10399;SDS011;10031;51.180;17.168;2022-10-26T08:34:33;19.87;;;13.90;;
10399;SDS011;10031;51.180;17.168;2022-10-26T08:36:59;18.60;;;14.90;;
10399;SDS011;10031;51.180;17.168;2022-10-26T08:39:25;24.23;;;14.63;;
10399;SDS011;10031;51.180;17.168;2022-10-26T08:41:55;19.20;;;13.90;;
10399;SDS011;10031;51.180;17.168;2022-10-26T08:44:46;22.67;;;14.13;;
10399;SDS011;10031;51.180;17.168;2022-10-26T08:47:17;21.23;;;13.27;;
10399;SDS011;10031;51.180;17.168;2022-10-26T08:49:53;23.33;;;13.43;;
10399;SDS011;10031;51.180;17.168;2022-10-26T08:52:46;16.17;;;13.27;;
10399;SDS011;10031;51.180;17.168;2022-10-26T08:55:20;18.53;;;13.23;;
10399;SDS011;10031;51.180;17.168;2022-10-26T08:57:57;22.53;;;13.70;;
10399;SDS011;10031;51.180;17.168;2022-10-26T09:00:26;22.83;;;14.10;;
10399;SDS011;10031;51.180;17.168;2022-10-26T09:02:54;19.90;;;12.57;;
10399;SDS011;10031;51.180;17.168;2022-10-26T09:05:21;19.47;;;13.40;;
10399;SDS011;10031;51.180;17.168;2022-10-26T09:21:38;15.17;;;11.23;;
10399;SDS011;10031;51.180;17.168;2022-10-26T09:29:48;18.43;;;11.07;;
10399;SDS011;10031;51.180;17.168;2022-10-26T09:32:18;26.13;;;12.73;;
10399;SDS011;10031;51.180;17.168;2022-10-26T09:37:56;21.40;;;13.13;;
10399;SDS011;10031;51.180;17.168;2022-10-26T09:40:48;21.53;;;14.77;;
10399;SDS011;10031;51.180;17.168;2022-10-26T09:45:51;25.73;;;19.03;;
10399;SDS011;10031;51.180;17.168;2022-10-26T09:48:30;27.80;;;21.37;;
10399;SDS011;10031;51.180;17.168;2022-10-26T09:51:04;27.13;;;19.07;;
10399;SDS011;10031;51.180;17.168;2022-10-26T09:53:30;25.57;;;17.90;;
10399;SDS011;10031;51.180;17.168;2022-10-26T09:56:09;27.83;;;17.13;;
10399;SDS011;10031;51.180;17.168;2022-10-26T09:58:51;29.43;;;20.30;;
10399;SDS011;10031;51.180;17.168;2022-10-26T10:06:45;18.63;;;12.33;;
10399;SDS011;10031;51.180;17.168;2022-10-26T10:11:55;16.53;;;10.70;;
10399;SDS011;10031;51.180;17.168;2022-10-26T10:14:27;14.65;;;9.50;;
10399;SDS011;10031;51.180;17.168;2022-10-26T10:16:57;15.73;;;8.93;;
10399;SDS011;10031;51.180;17.168;2022-10-26T10:19:34;13.77;;;8.20;;
10399;SDS011;10031;51.180;17.168;2022-10-26T10:22:10;13.18;;;8.00;;
10399;SDS011;10031;51.180;17.168;2022-10-26T10:24:53;12.95;;;7.38;;
10399;SDS011;10031;51.180;17.168;2022-10-26T10:27:19;14.85;;;7.93;;
10399;SDS011;10031;51.180;17.168;2022-10-26T10:30:18;12.25;;;8.90;;
10399;SDS011;10031;51.180;17.168;2022-10-26T10:32:47;15.25;;;8.55;;
10399;SDS011;10031;51.180;17.168;2022-10-26T10:35:36;17.33;;;8.40;;
10399;SDS011;10031;51.180;17.168;2022-10-26T10:38:19;13.27;;;9.52;;
10399;SDS011;10031;51.180;17.168;2022-10-26T10:40:57;11.30;;;7.15;;
10399;SDS011;10031;51.180;17.168;2022-10-26T10:43:27;10.38;;;7.03;;
10399;SDS011;10031;51.180;17.168;2022-10-26T10:45:54;11.77;;;7.70;;
10399;SDS011;10031;51.180;17.168;2022-10-26T10:48:31;9.77;;;7.35;;
10399;SDS011;10031;51.180;17.168;2022-10-26T10:51:06;9.25;;;6.07;;
10399;SDS011;10031;51.180;17.168;2022-10-26T10:53:52;9.75;;;5.70;;
10399;SDS011;10031;51.180;17.168;2022-10-26T10:56:40;7.60;;;6.00;;
10399;SDS011;10031;51.180;17.168;2022-10-26T11:04:44;10.23;;;6.07;;
10399;SDS011;10031;51.180;17.168;2022-10-26T11:07:24;7.82;;;4.05;;
10399;SDS011;10031;51.180;17.168;2022-10-26T11:09:51;6.53;;;3.60;;
10399;SDS011;10031;51.180;17.168;2022-10-26T11:12:23;9.40;;;4.95;;
10399;SDS011;10031;51.180;17.168;2022-10-26T11:14:52;7.10;;;4.75;;
10399;SDS011;10031;51.180;17.168;2022-10-26T11:17:24;8.77;;;5.65;;
10399;SDS011;10031;51.180;17.168;2022-10-26T11:19:56;10.63;;;5.10;;
10399;SDS011;10031;51.180;17.168;2022-10-26T11:22:35;6.57;;;4.05;;
10399;SDS011;10031;51.180;17.168;2022-10-26T11:25:26;6.97;;;3.88;;
10399;SDS011;10031;51.180;17.168;2022-10-26T11:28:14;9.15;;;4.18;;
10399;SDS011;10031;51.180;17.168;2022-10-26T11:30:51;8.43;;;3.95;;
10399;SDS011;10031;51.180;17.168;2022-10-26T11:33:42;7.25;;;4.32;;
10399;SDS011;10031;51.180;17.168;2022-10-26T11:36:27;5.72;;;3.92;;
10399;SDS011;10031;51.180;17.168;2022-10-26T11:41:41;7.95;;;3.88;;
10399;SDS011;10031;51.180;17.168;2022-10-26T11:46:48;7.40;;;4.00;;
10399;SDS011;10031;51.180;17.168;2022-10-26T11:51:54;6.68;;;3.53;;
10399;SDS011;10031;51.180;17.168;2022-10-26T11:54:23;7.80;;;3.85;;
10399;SDS011;10031;51.180;17.168;2022-10-26T11:56:55;7.00;;;3.30;;
10399;SDS011;10031;51.180;17.168;2022-10-26T11:59:27;5.13;;;3.17;;
10399;SDS011;10031;51.180;17.168;2022-10-26T12:01:59;4.85;;;3.10;;
10399;SDS011;10031;51.180;17.168;2022-10-26T12:04:32;12.48;;;3.25;;
10399;SDS011;10031;51.180;17.168;2022-10-26T12:07:01;7.90;;;3.63;;
10399;SDS011;10031;51.180;17.168;2022-10-26T12:09:33;6.03;;;3.47;;
10399;SDS011;10031;51.180;17.168;2022-10-26T12:12:07;8.68;;;3.38;;
10399;SDS011;10031;51.180;17.168;2022-10-26T12:17:31;4.43;;;2.85;;
10399;SDS011;10031;51.180;17.168;2022-10-26T12:22:47;4.35;;;3.00;;
10399;SDS011;10031;51.180;17.168;2022-10-26T12:40:48;5.63;;;2.75;;
10399;SDS011;10031;51.180;17.168;2022-10-26T12:43:36;6.70;;;2.85;;
10399;SDS011;10031;51.180;17.168;2022-10-26T12:56:16;6.60;;;2.10;;
10399;SDS011;10031;51.180;17.168;2022-10-26T12:59:10;4.95;;;2.10;;
10399;SDS011;10031;51.180;17.168;2022-10-26T13:07:13;4.07;;;1.98;;
10399;SDS011;10031;51.180;17.168;2022-10-26T13:09:54;5.20;;;2.22;;
10399;SDS011;10031;51.180;17.168;2022-10-26T13:15:56;4.07;;;2.25;;
10399;SDS011;10031;51.180;17.168;2022-10-26T13:18:14;4.80;;;2.20;;
10399;SDS011;10031;51.180;17.168;2022-10-26T13:23:27;3.90;;;2.10;;
10399;SDS011;10031;51.180;17.168;2022-10-26T13:31:02;3.75;;;1.92;;
10399;SDS011;10031;51.180;17.168;2022-10-26T13:33:30;3.63;;;1.70;;
10399;SDS011;10031;51.180;17.168;2022-10-26T13:36:02;5.50;;;1.88;;
10399;SDS011;10031;51.180;17.168;2022-10-26T13:38:39;5.75;;;2.03;;
10399;SDS011;10031;51.180;17.168;2022-10-26T13:41:07;4.18;;;2.03;;
10399;SDS011;10031;51.180;17.168;2022-10-26T13:43:42;3.05;;;1.70;;
10399;SDS011;10031;51.180;17.168;2022-10-26T13:46:17;4.57;;;2.28;;
10399;SDS011;10031;51.180;17.168;2022-10-26T13:48:49;4.05;;;1.90;;
10399;SDS011;10031;51.180;17.168;2022-10-26T13:51:25;3.53;;;1.90;;
10399;SDS011;10031;51.180;17.168;2022-10-26T13:54:11;6.80;;;1.92;;
10399;SDS011;10031;51.180;17.168;2022-10-26T13:59:52;5.50;;;1.85;;
10399;SDS011;10031;51.180;17.168;2022-10-26T14:02:25;3.42;;;1.70;;
10399;SDS011;10031;51.180;17.168;2022-10-26T14:05:02;3.53;;;1.92;;
10399;SDS011;10031;51.180;17.168;2022-10-26T14:07:51;4.88;;;1.88;;
10399;SDS011;10031;51.180;17.168;2022-10-26T14:10:28;6.60;;;1.90;;
10399;SDS011;10031;51.180;17.168;2022-10-26T14:13:00;3.58;;;1.73;;
10399;SDS011;10031;51.180;17.168;2022-10-26T14:15:27;2.17;;;1.65;;
10399;SDS011;10031;51.180;17.168;2022-10-26T14:17:57;4.10;;;1.80;;
10399;SDS011;10031;51.180;17.168;2022-10-26T14:20:26;3.85;;;1.85;;
10399;SDS011;10031;51.180;17.168;2022-10-26T14:22:53;5.40;;;2.05;;
10399;SDS011;10031;51.180;17.168;2022-10-26T14:25:21;3.53;;;1.60;;
10399;SDS011;10031;51.180;17.168;2022-10-26T14:27:55;4.18;;;1.92;;
10399;SDS011;10031;51.180;17.168;2022-10-26T14:32:52;6.45;;;2.22;;
10399;SDS011;10031;51.180;17.168;2022-10-26T14:35:24;3.55;;;1.83;;
10399;SDS011;10031;51.180;17.168;2022-10-26T14:38:03;3.38;;;2.15;;
10399;SDS011;10031;51.180;17.168;2022-10-26T14:40:34;4.20;;;1.70;;
10399;SDS011;10031;51.180;17.168;2022-10-26T14:43:01;3.88;;;1.80;;
10399;SDS011;10031;51.180;17.168;2022-10-26T14:45:38;5.28;;;2.03;;
10399;SDS011;10031;51.180;17.168;2022-10-26T14:48:04;5.20;;;1.90;;
10399;SDS011;10031;51.180;17.168;2022-10-26T14:50:32;9.82;;;2.40;;
10399;SDS011;10031;51.180;17.168;2022-10-26T14:53:01;8.48;;;2.15;;
10399;SDS011;10031;51.180;17.168;2022-10-26T14:55:46;7.43;;;2.40;;
10399;SDS011;10031;51.180;17.168;2022-10-26T14:58:16;6.07;;;2.40;;
10399;SDS011;10031;51.180;17.168;2022-10-26T15:03:40;6.70;;;2.47;;
10399;SDS011;10031;51.180;17.168;2022-10-26T15:06:25;5.35;;;2.17;;
10399;SDS011;10031;51.180;17.168;2022-10-26T15:09:03;7.88;;;3.00;;
10399;SDS011;10031;51.180;17.168;2022-10-26T15:11:31;6.07;;;2.38;;
10399;SDS011;10031;51.180;17.168;2022-10-26T15:13:59;10.13;;;2.63;;
10399;SDS011;10031;51.180;17.168;2022-10-26T15:16:37;13.88;;;2.92;;
10399;SDS011;10031;51.180;17.168;2022-10-26T15:19:12;8.98;;;2.97;;
10399;SDS011;10031;51.180;17.168;2022-10-26T15:21:46;20.70;;;14.25;;
10399;SDS011;10031;51.180;17.168;2022-10-26T15:26:48;4.10;;;2.42;;
10399;SDS011;10031;51.180;17.168;2022-10-26T15:32:26;3.97;;;2.75;;
10399;SDS011;10031;51.180;17.168;2022-10-26T15:37:47;4.57;;;2.72;;
10399;SDS011;10031;51.180;17.168;2022-10-26T15:40:16;4.47;;;2.55;;
10399;SDS011;10031;51.180;17.168;2022-10-26T15:42:42;4.57;;;2.58;;
10399;SDS011;10031;51.180;17.168;2022-10-26T15:45:23;5.18;;;2.80;;
10399;SDS011;10031;51.180;17.168;2022-10-26T15:47:51;5.35;;;2.50;;
10399;SDS011;10031;51.180;17.168;2022-10-26T15:50:20;4.17;;;2.70;;
10399;SDS011;10031;51.180;17.168;2022-10-26T15:52:48;7.37;;;3.23;;
10399;SDS011;10031;51.180;17.168;2022-10-26T15:55:18;5.23;;;3.57;;
10399;SDS011;10031;51.180;17.168;2022-10-26T15:57:44;7.70;;;4.90;;
10399;SDS011;10031;51.180;17.168;2022-10-26T16:00:14;7.47;;;4.37;;
10399;SDS011;10031;51.180;17.168;2022-10-26T16:02:42;8.17;;;4.60;;
10399;SDS011;10031;51.180;17.168;2022-10-26T16:05:09;7.90;;;4.63;;
10399;SDS011;10031;51.180;17.168;2022-10-26T16:07:40;9.20;;;5.30;;
10399;SDS011;10031;51.180;17.168;2022-10-26T16:10:21;10.53;;;6.20;;
10399;SDS011;10031;51.180;17.168;2022-10-26T16:12:48;11.07;;;7.23;;
10399;SDS011;10031;51.180;17.168;2022-10-26T16:15:19;12.37;;;4.70;;
10399;SDS011;10031;51.180;17.168;2022-10-26T16:17:46;16.40;;;7.77;;
10399;SDS011;10031;51.180;17.168;2022-10-26T16:20:17;12.53;;;5.93;;
10399;SDS011;10031;51.180;17.168;2022-10-26T16:22:47;16.03;;;7.27;;
10399;SDS011;10031;51.180;17.168;2022-10-26T16:25:17;12.30;;;5.40;;
10399;SDS011;10031;51.180;17.168;2022-10-26T16:27:47;13.13;;;6.17;;
10399;SDS011;10031;51.180;17.168;2022-10-26T16:30:15;14.50;;;7.10;;
10399;SDS011;10031;51.180;17.168;2022-10-26T16:32:42;11.53;;;6.77;;
10399;SDS011;10031;51.180;17.168;2022-10-26T16:35:09;11.10;;;7.07;;
10399;SDS011;10031;51.180;17.168;2022-10-26T16:37:35;17.73;;;11.10;;
10399;SDS011;10031;51.180;17.168;2022-10-26T16:40:02;16.93;;;9.73;;
10399;SDS011;10031;51.180;17.168;2022-10-26T16:42:29;17.53;;;10.50;;
10399;SDS011;10031;51.180;17.168;2022-10-26T16:44:59;11.80;;;8.40;;
10399;SDS011;10031;51.180;17.168;2022-10-26T16:47:25;19.40;;;13.60;;
10399;SDS011;10031;51.180;17.168;2022-10-26T16:49:51;16.23;;;10.80;;
10399;SDS011;10031;51.180;17.168;2022-10-26T16:52:17;15.33;;;11.23;;
10399;SDS011;10031;51.180;17.168;2022-10-26T16:54:43;21.73;;;12.70;;
10399;SDS011;10031;51.180;17.168;2022-10-26T16:57:09;19.23;;;11.70;;
10399;SDS011;10031;51.180;17.168;2022-10-26T16:59:35;22.27;;;11.20;;
10399;SDS011;10031;51.180;17.168;2022-10-26T17:02:02;18.77;;;11.67;;
10399;SDS011;10031;51.180;17.168;2022-10-26T17:04:28;18.53;;;12.33;;
10399;SDS011;10031;51.180;17.168;2022-10-26T17:06:54;24.17;;;15.80;;
10399;SDS011;10031;51.180;17.168;2022-10-26T17:09:20;27.97;;;18.40;;
10399;SDS011;10031;51.180;17.168;2022-10-26T17:11:46;28.63;;;19.37;;
10399;SDS011;10031;51.180;17.168;2022-10-26T17:14:12;25.17;;;16.57;;
10399;SDS011;10031;51.180;17.168;2022-10-26T17:16:39;23.33;;;14.53;;
10399;SDS011;10031;51.180;17.168;2022-10-26T17:19:09;17.60;;;13.07;;